sensor_id;sensor_type;location;lat;lon;timestamp;P1;durP1;ratioP1;P2;durP2;ratioP2
12334;SDS011;6233;51.560;9.986;2023-05-23T00:00:19;13.67;;;12.03;;
12334;SDS011;6233;51.560;9.986;2023-05-23T00:03:21;13.27;;;11.90;;
12334;SDS011;6233;51.560;9.986;2023-05-23T00:06:23;13.50;;;12.13;;
12334;SDS011;6233;51.560;9.986;2023-05-23T00:09:25;13.40;;;12.00;;
12334;SDS011;6233;51.560;9.986;2023-05-23T00:12:28;19.97;;;12.27;;
12334;SDS011;6233;51.560;9.986;2023-05-23T00:15:30;12.87;;;11.47;;
12334;SDS011;6233;51.560;9.986;2023-05-23T00:18:34;11.87;;;10.73;;
12334;SDS011;6233;51.560;9.986;2023-05-23T00:21:36;14.60;;;11.73;;
12334;SDS011;6233;51.560;9.986;2023-05-23T00:24:39;12.83;;;11.40;;
12334;SDS011;6233;51.560;9.986;2023-05-23T00:27:50;13.03;;;11.63;;
12334;SDS011;6233;51.560;9.986;2023-05-23T00:30:52;13.67;;;12.13;;
12334;SDS011;6233;51.560;9.986;2023-05-23T00:33:54;13.87;;;12.47;;
12334;SDS011;6233;51.560;9.986;2023-05-23T00:36:56;14.07;;;12.67;;
12334;SDS011;6233;51.560;9.986;2023-05-23T00:39:59;13.83;;;12.43;;
12334;SDS011;6233;51.560;9.986;2023-05-23T00:43:02;15.13;;;12.93;;
12334;SDS011;6233;51.560;9.986;2023-05-23T00:46:04;13.47;;;11.77;;
12334;SDS011;6233;51.560;9.986;2023-05-23T00:49:06;13.73;;;12.10;;
12334;SDS011;6233;51.560;9.986;2023-05-23T00:52:09;14.10;;;12.37;;
12334;SDS011;6233;51.560;9.986;2023-05-23T00:55:11;13.47;;;12.17;;
12334;SDS011;6233;51.560;9.986;2023-05-23T00:58:14;14.53;;;12.27;;
12334;SDS011;6233;51.560;9.986;2023-05-23T01:01:17;13.40;;;12.00;;
12334;SDS011;6233;51.560;9.986;2023-05-23T01:04:20;14.63;;;13.13;;
12334;SDS011;6233;51.560;9.986;2023-05-23T01:07:26;14.37;;;11.93;;
12334;SDS011;6233;51.560;9.986;2023-05-23T01:10:28;14.17;;;12.27;;
12334;SDS011;6233;51.560;9.986;2023-05-23T01:19:44;11.87;;;10.67;;
12334;SDS011;6233;51.560;9.986;2023-05-23T01:23:12;12.60;;;11.30;;
12334;SDS011;6233;51.560;9.986;2023-05-23T01:26:26;13.30;;;12.00;;
12334;SDS011;6233;51.560;9.986;2023-05-23T01:29:42;12.70;;;11.40;;
12334;SDS011;6233;51.560;9.986;2023-05-23T01:32:47;13.80;;;11.80;;
12334;SDS011;6233;51.560;9.986;2023-05-23T01:35:49;13.10;;;11.73;;
12334;SDS011;6233;51.560;9.986;2023-05-23T01:38:51;13.63;;;12.23;;
12334;SDS011;6233;51.560;9.986;2023-05-23T01:41:53;14.03;;;11.47;;
12334;SDS011;6233;51.560;9.986;2023-05-23T01:44:56;12.50;;;11.20;;
12334;SDS011;6233;51.560;9.986;2023-05-23T01:47:59;15.47;;;13.00;;
12334;SDS011;6233;51.560;9.986;2023-05-23T01:51:03;15.03;;;13.03;;
12334;SDS011;6233;51.560;9.986;2023-05-23T01:54:06;15.83;;;14.00;;
12334;SDS011;6233;51.560;9.986;2023-05-23T01:57:08;16.10;;;14.40;;
12334;SDS011;6233;51.560;9.986;2023-05-23T02:00:11;19.53;;;15.80;;
12334;SDS011;6233;51.560;9.986;2023-05-23T02:03:15;18.27;;;15.70;;
12334;SDS011;6233;51.560;9.986;2023-05-23T02:06:17;19.67;;;16.80;;
12334;SDS011;6233;51.560;9.986;2023-05-23T02:09:19;20.60;;;18.23;;
12334;SDS011;6233;51.560;9.986;2023-05-23T02:12:22;20.10;;;17.73;;
12334;SDS011;6233;51.560;9.986;2023-05-23T02:15:24;22.77;;;19.60;;
12334;SDS011;6233;51.560;9.986;2023-05-23T02:18:26;23.23;;;20.73;;
12334;SDS011;6233;51.560;9.986;2023-05-23T02:21:30;26.83;;;23.47;;
12334;SDS011;6233;51.560;9.986;2023-05-23T02:24:35;27.23;;;24.23;;
12334;SDS011;6233;51.560;9.986;2023-05-23T02:27:37;30.20;;;27.00;;
12334;SDS011;6233;51.560;9.986;2023-05-23T02:30:39;30.33;;;25.70;;
12334;SDS011;6233;51.560;9.986;2023-05-23T02:33:42;32.43;;;27.70;;
12334;SDS011;6233;51.560;9.986;2023-05-23T02:36:44;32.07;;;28.63;;
12334;SDS011;6233;51.560;9.986;2023-05-23T02:39:46;32.10;;;28.03;;
12334;SDS011;6233;51.560;9.986;2023-05-23T02:42:48;31.10;;;27.70;;
12334;SDS011;6233;51.560;9.986;2023-05-23T02:45:51;31.40;;;28.10;;
12334;SDS011;6233;51.560;9.986;2023-05-23T02:48:53;28.63;;;25.67;;
12334;SDS011;6233;51.560;9.986;2023-05-23T02:51:56;27.40;;;22.20;;
12334;SDS011;6233;51.560;9.986;2023-05-23T02:54:58;27.00;;;21.37;;
12334;SDS011;6233;51.560;9.986;2023-05-23T02:58:01;24.17;;;21.07;;
12334;SDS011;6233;51.560;9.986;2023-05-23T03:01:06;23.00;;;20.53;;
12334;SDS011;6233;51.560;9.986;2023-05-23T03:04:12;22.57;;;18.07;;
12334;SDS011;6233;51.560;9.986;2023-05-23T03:07:14;20.77;;;16.43;;
12334;SDS011;6233;51.560;9.986;2023-05-23T03:10:28;19.10;;;16.03;;
12334;SDS011;6233;51.560;9.986;2023-05-23T03:13:30;17.07;;;14.60;;
12334;SDS011;6233;51.560;9.986;2023-05-23T03:16:33;16.67;;;14.87;;
12334;SDS011;6233;51.560;9.986;2023-05-23T03:19:36;14.57;;;13.07;;
12334;SDS011;6233;51.560;9.986;2023-05-23T03:22:38;15.33;;;13.30;;
12334;SDS011;6233;51.560;9.986;2023-05-23T03:25:43;15.70;;;13.30;;
12334;SDS011;6233;51.560;9.986;2023-05-23T03:28:46;17.77;;;15.10;;
12334;SDS011;6233;51.560;9.986;2023-05-23T03:31:48;14.77;;;13.10;;
12334;SDS011;6233;51.560;9.986;2023-05-23T03:34:51;13.97;;;11.93;;
12334;SDS011;6233;51.560;9.986;2023-05-23T03:37:53;15.70;;;12.33;;
12334;SDS011;6233;51.560;9.986;2023-05-23T03:40:55;14.30;;;12.17;;
12334;SDS011;6233;51.560;9.986;2023-05-23T03:43:57;13.47;;;11.80;;
12334;SDS011;6233;51.560;9.986;2023-05-23T03:47:01;15.30;;;13.03;;
12334;SDS011;6233;51.560;9.986;2023-05-23T03:50:03;16.20;;;14.37;;
12334;SDS011;6233;51.560;9.986;2023-05-23T03:53:05;15.80;;;12.83;;
12334;SDS011;6233;51.560;9.986;2023-05-23T03:56:08;15.43;;;12.50;;
12334;SDS011;6233;51.560;9.986;2023-05-23T03:59:10;14.37;;;12.17;;
12334;SDS011;6233;51.560;9.986;2023-05-23T04:02:12;15.60;;;14.00;;
12334;SDS011;6233;51.560;9.986;2023-05-23T04:05:14;14.03;;;12.63;;
12334;SDS011;6233;51.560;9.986;2023-05-23T04:08:16;14.53;;;12.70;;
12334;SDS011;6233;51.560;9.986;2023-05-23T04:11:22;13.63;;;12.13;;
12334;SDS011;6233;51.560;9.986;2023-05-23T04:14:24;15.20;;;13.07;;
12334;SDS011;6233;51.560;9.986;2023-05-23T04:17:26;15.43;;;12.93;;
12334;SDS011;6233;51.560;9.986;2023-05-23T04:20:29;13.83;;;12.33;;
12334;SDS011;6233;51.560;9.986;2023-05-23T04:23:31;15.70;;;14.10;;
12334;SDS011;6233;51.560;9.986;2023-05-23T04:26:34;14.73;;;12.93;;
12334;SDS011;6233;51.560;9.986;2023-05-23T04:29:36;16.87;;;14.27;;
12334;SDS011;6233;51.560;9.986;2023-05-23T04:32:38;14.97;;;13.33;;
12334;SDS011;6233;51.560;9.986;2023-05-23T04:35:41;14.87;;;13.20;;
12334;SDS011;6233;51.560;9.986;2023-05-23T04:38:43;16.93;;;13.07;;
12334;SDS011;6233;51.560;9.986;2023-05-23T04:41:46;14.87;;;11.60;;
12334;SDS011;6233;51.560;9.986;2023-05-23T04:44:49;13.43;;;11.97;;
12334;SDS011;6233;51.560;9.986;2023-05-23T04:47:51;13.23;;;11.30;;
12334;SDS011;6233;51.560;9.986;2023-05-23T04:50:56;13.13;;;11.10;;
12334;SDS011;6233;51.560;9.986;2023-05-23T04:54:02;12.80;;;11.13;;
12334;SDS011;6233;51.560;9.986;2023-05-23T04:57:04;12.07;;;10.27;;
12334;SDS011;6233;51.560;9.986;2023-05-23T05:00:06;10.63;;;9.13;;
12334;SDS011;6233;51.560;9.986;2023-05-23T05:03:10;9.30;;;8.40;;
12334;SDS011;6233;51.560;9.986;2023-05-23T05:06:12;9.93;;;8.93;;
12334;SDS011;6233;51.560;9.986;2023-05-23T05:09:15;9.33;;;8.33;;
12334;SDS011;6233;51.560;9.986;2023-05-23T05:12:17;10.57;;;9.30;;
12334;SDS011;6233;51.560;9.986;2023-05-23T05:15:19;9.43;;;7.97;;
12334;SDS011;6233;51.560;9.986;2023-05-23T05:18:21;8.20;;;7.40;;
12334;SDS011;6233;51.560;9.986;2023-05-23T05:21:24;8.30;;;7.50;;
12334;SDS011;6233;51.560;9.986;2023-05-23T05:24:26;10.30;;;8.33;;
12334;SDS011;6233;51.560;9.986;2023-05-23T05:27:29;8.27;;;7.37;;
12334;SDS011;6233;51.560;9.986;2023-05-23T05:30:31;8.97;;;7.27;;
12334;SDS011;6233;51.560;9.986;2023-05-23T05:33:35;8.83;;;7.83;;
12334;SDS011;6233;51.560;9.986;2023-05-23T05:36:38;10.07;;;8.03;;
12334;SDS011;6233;51.560;9.986;2023-05-23T05:39:46;8.07;;;7.27;;
12334;SDS011;6233;51.560;9.986;2023-05-23T05:42:48;8.40;;;7.47;;
12334;SDS011;6233;51.560;9.986;2023-05-23T05:45:50;8.70;;;7.80;;
12334;SDS011;6233;51.560;9.986;2023-05-23T05:48:52;8.57;;;7.53;;
12334;SDS011;6233;51.560;9.986;2023-05-23T05:51:54;9.10;;;7.73;;
12334;SDS011;6233;51.560;9.986;2023-05-23T05:54:57;7.63;;;6.90;;
12334;SDS011;6233;51.560;9.986;2023-05-23T05:57:59;7.73;;;6.60;;
12334;SDS011;6233;51.560;9.986;2023-05-23T06:01:01;8.80;;;7.13;;
12334;SDS011;6233;51.560;9.986;2023-05-23T06:04:03;7.67;;;6.53;;
12334;SDS011;6233;51.560;9.986;2023-05-23T06:07:06;7.20;;;6.50;;
12334;SDS011;6233;51.560;9.986;2023-05-23T06:10:08;9.43;;;6.83;;
12334;SDS011;6233;51.560;9.986;2023-05-23T06:13:13;7.57;;;6.73;;
12334;SDS011;6233;51.560;9.986;2023-05-23T06:16:15;8.93;;;7.03;;
12334;SDS011;6233;51.560;9.986;2023-05-23T06:19:17;8.23;;;7.03;;
12334;SDS011;6233;51.560;9.986;2023-05-23T06:22:20;10.17;;;8.90;;
12334;SDS011;6233;51.560;9.986;2023-05-23T06:25:22;9.23;;;7.67;;
12334;SDS011;6233;51.560;9.986;2023-05-23T06:28:24;9.47;;;7.37;;
12334;SDS011;6233;51.560;9.986;2023-05-23T06:31:26;8.03;;;7.17;;
12334;SDS011;6233;51.560;9.986;2023-05-23T06:34:28;10.07;;;7.53;;
12334;SDS011;6233;51.560;9.986;2023-05-23T06:37:31;8.47;;;7.50;;
12334;SDS011;6233;51.560;9.986;2023-05-23T06:40:33;13.17;;;7.80;;
12334;SDS011;6233;51.560;9.986;2023-05-23T06:43:35;9.60;;;7.50;;
12334;SDS011;6233;51.560;9.986;2023-05-23T06:46:37;9.10;;;7.43;;
12334;SDS011;6233;51.560;9.986;2023-05-23T06:49:40;10.63;;;7.97;;
12334;SDS011;6233;51.560;9.986;2023-05-23T06:52:43;12.37;;;7.33;;
12334;SDS011;6233;51.560;9.986;2023-05-23T06:55:46;7.80;;;6.97;;
12334;SDS011;6233;51.560;9.986;2023-05-23T06:58:49;7.80;;;7.00;;
12334;SDS011;6233;51.560;9.986;2023-05-23T07:01:51;8.07;;;7.00;;
12334;SDS011;6233;51.560;9.986;2023-05-23T07:04:53;6.93;;;6.20;;
12334;SDS011;6233;51.560;9.986;2023-05-23T07:11:24;7.77;;;6.60;;
12334;SDS011;6233;51.560;9.986;2023-05-23T07:14:26;6.80;;;6.10;;
12334;SDS011;6233;51.560;9.986;2023-05-23T07:17:28;7.73;;;6.93;;
12334;SDS011;6233;51.560;9.986;2023-05-23T07:20:34;7.90;;;6.77;;
12334;SDS011;6233;51.560;9.986;2023-05-23T07:23:36;8.80;;;7.47;;
12334;SDS011;6233;51.560;9.986;2023-05-23T07:26:38;11.43;;;8.30;;
12334;SDS011;6233;51.560;9.986;2023-05-23T07:29:41;10.20;;;7.97;;
12334;SDS011;6233;51.560;9.986;2023-05-23T07:32:43;9.80;;;8.60;;
12334;SDS011;6233;51.560;9.986;2023-05-23T07:35:45;9.90;;;8.50;;
12334;SDS011;6233;51.560;9.986;2023-05-23T07:38:47;9.70;;;8.30;;
12334;SDS011;6233;51.560;9.986;2023-05-23T07:41:49;8.90;;;8.00;;
12334;SDS011;6233;51.560;9.986;2023-05-23T07:44:52;11.53;;;8.73;;
12334;SDS011;6233;51.560;9.986;2023-05-23T07:51:08;9.37;;;8.37;;
12334;SDS011;6233;51.560;9.986;2023-05-23T07:54:11;8.93;;;8.03;;
12334;SDS011;6233;51.560;9.986;2023-05-23T07:57:16;9.23;;;8.33;;
12334;SDS011;6233;51.560;9.986;2023-05-23T08:00:18;10.00;;;8.53;;
12334;SDS011;6233;51.560;9.986;2023-05-23T08:03:21;10.60;;;8.77;;
12334;SDS011;6233;51.560;9.986;2023-05-23T08:06:23;10.87;;;8.90;;
12334;SDS011;6233;51.560;9.986;2023-05-23T08:09:25;10.47;;;9.07;;
12334;SDS011;6233;51.560;9.986;2023-05-23T08:12:27;11.00;;;9.90;;
12334;SDS011;6233;51.560;9.986;2023-05-23T08:15:31;10.77;;;9.63;;
12334;SDS011;6233;51.560;9.986;2023-05-23T08:18:36;12.00;;;9.20;;
12334;SDS011;6233;51.560;9.986;2023-05-23T08:21:39;11.63;;;9.10;;
12334;SDS011;6233;51.560;9.986;2023-05-23T08:24:42;10.83;;;9.60;;
12334;SDS011;6233;51.560;9.986;2023-05-23T08:31:06;10.03;;;8.77;;
12334;SDS011;6233;51.560;9.986;2023-05-23T08:34:08;10.20;;;9.13;;
12334;SDS011;6233;51.560;9.986;2023-05-23T08:37:11;10.80;;;9.07;;
12334;SDS011;6233;51.560;9.986;2023-05-23T08:40:14;10.43;;;9.43;;
12334;SDS011;6233;51.560;9.986;2023-05-23T08:43:19;9.73;;;8.40;;
12334;SDS011;6233;51.560;9.986;2023-05-23T08:46:22;10.03;;;8.60;;
12334;SDS011;6233;51.560;9.986;2023-05-23T08:52:56;9.00;;;8.10;;
12334;SDS011;6233;51.560;9.986;2023-05-23T08:55:58;9.37;;;8.47;;
12334;SDS011;6233;51.560;9.986;2023-05-23T08:59:02;9.57;;;8.63;;
12334;SDS011;6233;51.560;9.986;2023-05-23T09:02:06;7.93;;;7.13;;
12334;SDS011;6233;51.560;9.986;2023-05-23T09:05:09;7.47;;;6.77;;
12334;SDS011;6233;51.560;9.986;2023-05-23T09:08:12;7.57;;;6.77;;
12334;SDS011;6233;51.560;9.986;2023-05-23T09:11:15;7.00;;;6.30;;
12334;SDS011;6233;51.560;9.986;2023-05-23T09:14:17;6.90;;;6.17;;
12334;SDS011;6233;51.560;9.986;2023-05-23T09:17:20;7.37;;;6.67;;
12334;SDS011;6233;51.560;9.986;2023-05-23T09:20:22;5.93;;;5.03;;
12334;SDS011;6233;51.560;9.986;2023-05-23T09:23:25;5.20;;;4.70;;
12334;SDS011;6233;51.560;9.986;2023-05-23T09:26:27;5.07;;;4.57;;
12334;SDS011;6233;51.560;9.986;2023-05-23T09:29:29;6.20;;;5.60;;
12334;SDS011;6233;51.560;9.986;2023-05-23T09:32:31;5.97;;;5.40;;
12334;SDS011;6233;51.560;9.986;2023-05-23T09:35:33;5.20;;;4.70;;
12334;SDS011;6233;51.560;9.986;2023-05-23T09:38:36;6.67;;;4.97;;
12334;SDS011;6233;51.560;9.986;2023-05-23T09:41:40;5.90;;;5.23;;
12334;SDS011;6233;51.560;9.986;2023-05-23T09:44:42;5.73;;;5.23;;
12334;SDS011;6233;51.560;9.986;2023-05-23T09:47:48;5.40;;;4.90;;
12334;SDS011;6233;51.560;9.986;2023-05-23T09:50:51;5.20;;;4.70;;
12334;SDS011;6233;51.560;9.986;2023-05-23T09:53:53;5.30;;;4.80;;
12334;SDS011;6233;51.560;9.986;2023-05-23T09:56:57;6.53;;;4.57;;
12334;SDS011;6233;51.560;9.986;2023-05-23T10:00:02;5.00;;;4.60;;
12334;SDS011;6233;51.560;9.986;2023-05-23T10:03:12;5.17;;;4.67;;
12334;SDS011;6233;51.560;9.986;2023-05-23T10:06:31;6.03;;;4.70;;
12334;SDS011;6233;51.560;9.986;2023-05-23T10:09:35;6.57;;;5.03;;
12334;SDS011;6233;51.560;9.986;2023-05-23T10:13:12;5.53;;;5.03;;
12334;SDS011;6233;51.560;9.986;2023-05-23T10:19:41;6.20;;;4.67;;
12334;SDS011;6233;51.560;9.986;2023-05-23T10:22:47;5.30;;;4.80;;
12334;SDS011;6233;51.560;9.986;2023-05-23T10:25:50;6.90;;;5.67;;
12334;SDS011;6233;51.560;9.986;2023-05-23T10:28:52;6.23;;;5.63;;
12334;SDS011;6233;51.560;9.986;2023-05-23T10:32:07;6.30;;;5.70;;
12334;SDS011;6233;51.560;9.986;2023-05-23T10:35:20;8.13;;;6.43;;
12334;SDS011;6233;51.560;9.986;2023-05-23T10:38:33;6.57;;;5.87;;
12334;SDS011;6233;51.560;9.986;2023-05-23T10:41:42;6.67;;;6.00;;
12334;SDS011;6233;51.560;9.986;2023-05-23T10:44:45;5.83;;;5.10;;
12334;SDS011;6233;51.560;9.986;2023-05-23T10:47:48;4.77;;;4.37;;
12334;SDS011;6233;51.560;9.986;2023-05-23T10:51:04;4.80;;;4.40;;
12334;SDS011;6233;51.560;9.986;2023-05-23T10:54:09;11.20;;;4.10;;
12334;SDS011;6233;51.560;9.986;2023-05-23T11:01:01;4.17;;;3.77;;
12334;SDS011;6233;51.560;9.986;2023-05-23T11:04:04;4.10;;;3.70;;
12334;SDS011;6233;51.560;9.986;2023-05-23T11:10:28;3.73;;;3.23;;
12334;SDS011;6233;51.560;9.986;2023-05-23T11:17:16;3.07;;;2.80;;
12334;SDS011;6233;51.560;9.986;2023-05-23T11:20:19;3.57;;;2.80;;
12334;SDS011;6233;51.560;9.986;2023-05-23T11:23:23;3.53;;;2.77;;
12334;SDS011;6233;51.560;9.986;2023-05-23T11:30:16;3.57;;;2.90;;
12334;SDS011;6233;51.560;9.986;2023-05-23T11:33:18;2.90;;;2.70;;
12334;SDS011;6233;51.560;9.986;2023-05-23T11:36:21;4.40;;;4.00;;
12334;SDS011;6233;51.560;9.986;2023-05-23T11:39:23;5.03;;;3.47;;
12334;SDS011;6233;51.560;9.986;2023-05-23T11:42:26;3.40;;;3.10;;
12334;SDS011;6233;51.560;9.986;2023-05-23T11:45:29;3.57;;;3.27;;
12334;SDS011;6233;51.560;9.986;2023-05-23T11:48:32;4.73;;;3.90;;
12334;SDS011;6233;51.560;9.986;2023-05-23T11:51:34;3.80;;;3.00;;
12334;SDS011;6233;51.560;9.986;2023-05-23T11:54:36;4.53;;;4.00;;
12334;SDS011;6233;51.560;9.986;2023-05-23T11:57:41;4.27;;;3.87;;
12334;SDS011;6233;51.560;9.986;2023-05-23T12:00:43;4.63;;;3.83;;
12334;SDS011;6233;51.560;9.986;2023-05-23T12:03:47;4.80;;;4.03;;
12334;SDS011;6233;51.560;9.986;2023-05-23T12:06:50;5.50;;;4.13;;
12334;SDS011;6233;51.560;9.986;2023-05-23T12:13:56;5.80;;;4.87;;
12334;SDS011;6233;51.560;9.986;2023-05-23T12:17:01;6.07;;;5.07;;
12334;SDS011;6233;51.560;9.986;2023-05-23T12:20:06;6.03;;;5.30;;
12334;SDS011;6233;51.560;9.986;2023-05-23T12:23:16;6.00;;;5.40;;
12334;SDS011;6233;51.560;9.986;2023-05-23T12:26:18;8.93;;;8.03;;
12334;SDS011;6233;51.560;9.986;2023-05-23T12:29:32;8.80;;;7.90;;
12334;SDS011;6233;51.560;9.986;2023-05-23T12:32:39;7.13;;;6.33;;
12334;SDS011;6233;51.560;9.986;2023-05-23T12:35:42;9.10;;;7.90;;
12334;SDS011;6233;51.560;9.986;2023-05-23T12:38:45;9.07;;;7.23;;
12334;SDS011;6233;51.560;9.986;2023-05-23T12:41:47;8.20;;;6.93;;
12334;SDS011;6233;51.560;9.986;2023-05-23T12:44:50;10.97;;;8.30;;
12334;SDS011;6233;51.560;9.986;2023-05-23T12:47:52;9.03;;;7.83;;
12334;SDS011;6233;51.560;9.986;2023-05-23T12:50:54;8.80;;;7.90;;
12334;SDS011;6233;51.560;9.986;2023-05-23T12:53:57;10.03;;;8.40;;
12334;SDS011;6233;51.560;9.986;2023-05-23T12:56:59;10.17;;;8.70;;
12334;SDS011;6233;51.560;9.986;2023-05-23T13:00:01;9.37;;;8.37;;
12334;SDS011;6233;51.560;9.986;2023-05-23T13:03:03;10.30;;;8.37;;
12334;SDS011;6233;51.560;9.986;2023-05-23T13:06:06;10.07;;;8.30;;
12334;SDS011;6233;51.560;9.986;2023-05-23T13:09:09;11.73;;;8.70;;
12334;SDS011;6233;51.560;9.986;2023-05-23T13:12:11;8.93;;;7.17;;
12334;SDS011;6233;51.560;9.986;2023-05-23T13:15:13;8.87;;;7.67;;
12334;SDS011;6233;51.560;9.986;2023-05-23T13:18:16;11.03;;;7.70;;
12334;SDS011;6233;51.560;9.986;2023-05-23T13:21:19;8.17;;;7.27;;
12334;SDS011;6233;51.560;9.986;2023-05-23T13:24:21;11.47;;;8.33;;
12334;SDS011;6233;51.560;9.986;2023-05-23T13:27:23;10.27;;;8.10;;
12334;SDS011;6233;51.560;9.986;2023-05-23T13:30:26;11.73;;;8.53;;
12334;SDS011;6233;51.560;9.986;2023-05-23T13:33:28;10.07;;;8.77;;
12334;SDS011;6233;51.560;9.986;2023-05-23T13:36:31;12.50;;;9.13;;
12334;SDS011;6233;51.560;9.986;2023-05-23T13:39:34;13.50;;;9.47;;
12334;SDS011;6233;51.560;9.986;2023-05-23T13:42:36;13.27;;;10.47;;
12334;SDS011;6233;51.560;9.986;2023-05-23T13:45:38;13.37;;;10.37;;
12334;SDS011;6233;51.560;9.986;2023-05-23T13:48:41;11.67;;;9.90;;
12334;SDS011;6233;51.560;9.986;2023-05-23T13:51:43;13.67;;;10.03;;
12334;SDS011;6233;51.560;9.986;2023-05-23T13:54:45;12.60;;;9.80;;
12334;SDS011;6233;51.560;9.986;2023-05-23T13:57:47;13.13;;;9.83;;
12334;SDS011;6233;51.560;9.986;2023-05-23T14:00:49;11.87;;;9.83;;
12334;SDS011;6233;51.560;9.986;2023-05-23T14:03:52;13.63;;;9.17;;
12334;SDS011;6233;51.560;9.986;2023-05-23T14:07:00;12.83;;;8.70;;
12334;SDS011;6233;51.560;9.986;2023-05-23T14:10:03;13.20;;;9.73;;
12334;SDS011;6233;51.560;9.986;2023-05-23T14:13:05;12.17;;;8.90;;
12334;SDS011;6233;51.560;9.986;2023-05-23T14:19:34;13.03;;;8.80;;
12334;SDS011;6233;51.560;9.986;2023-05-23T14:22:36;13.17;;;9.17;;
12334;SDS011;6233;51.560;9.986;2023-05-23T14:25:44;13.80;;;8.63;;
12334;SDS011;6233;51.560;9.986;2023-05-23T14:28:47;15.30;;;9.23;;
12334;SDS011;6233;51.560;9.986;2023-05-23T14:31:49;13.17;;;8.43;;
12334;SDS011;6233;51.560;9.986;2023-05-23T14:34:51;12.23;;;8.53;;
12334;SDS011;6233;51.560;9.986;2023-05-23T14:37:53;13.40;;;8.77;;
12334;SDS011;6233;51.560;9.986;2023-05-23T14:40:56;14.90;;;8.97;;
12334;SDS011;6233;51.560;9.986;2023-05-23T14:44:01;13.67;;;8.47;;
12334;SDS011;6233;51.560;9.986;2023-05-23T14:47:04;14.50;;;7.93;;
12334;SDS011;6233;51.560;9.986;2023-05-23T14:50:06;12.73;;;7.63;;
12334;SDS011;6233;51.560;9.986;2023-05-23T14:53:08;14.40;;;7.27;;
12334;SDS011;6233;51.560;9.986;2023-05-23T14:56:11;12.47;;;7.43;;
12334;SDS011;6233;51.560;9.986;2023-05-23T14:59:13;11.93;;;7.13;;
12334;SDS011;6233;51.560;9.986;2023-05-23T15:02:17;12.30;;;7.80;;
12334;SDS011;6233;51.560;9.986;2023-05-23T15:05:32;10.23;;;6.70;;
12334;SDS011;6233;51.560;9.986;2023-05-23T15:08:34;9.93;;;6.33;;
12334;SDS011;6233;51.560;9.986;2023-05-23T15:11:37;11.27;;;6.50;;
12334;SDS011;6233;51.560;9.986;2023-05-23T15:14:40;10.83;;;6.23;;
12334;SDS011;6233;51.560;9.986;2023-05-23T15:17:43;10.97;;;6.40;;
12334;SDS011;6233;51.560;9.986;2023-05-23T15:20:46;9.10;;;6.17;;
12334;SDS011;6233;51.560;9.986;2023-05-23T15:23:48;10.10;;;5.93;;
12334;SDS011;6233;51.560;9.986;2023-05-23T15:26:53;8.50;;;6.10;;
12334;SDS011;6233;51.560;9.986;2023-05-23T15:30:05;9.67;;;5.90;;
12334;SDS011;6233;51.560;9.986;2023-05-23T15:33:07;9.93;;;5.90;;
12334;SDS011;6233;51.560;9.986;2023-05-23T15:36:10;9.80;;;5.93;;
12334;SDS011;6233;51.560;9.986;2023-05-23T15:39:13;10.63;;;6.23;;
12334;SDS011;6233;51.560;9.986;2023-05-23T15:42:17;10.60;;;6.17;;
12334;SDS011;6233;51.560;9.986;2023-05-23T15:45:19;9.27;;;6.43;;
12334;SDS011;6233;51.560;9.986;2023-05-23T15:48:22;7.40;;;5.90;;
12334;SDS011;6233;51.560;9.986;2023-05-23T15:51:37;11.47;;;5.97;;
12334;SDS011;6233;51.560;9.986;2023-05-23T15:54:40;12.07;;;6.70;;
12334;SDS011;6233;51.560;9.986;2023-05-23T15:57:42;8.90;;;6.30;;
12334;SDS011;6233;51.560;9.986;2023-05-23T16:00:44;10.13;;;5.93;;
12334;SDS011;6233;51.560;9.986;2023-05-23T16:03:46;7.20;;;5.10;;
12334;SDS011;6233;51.560;9.986;2023-05-23T16:06:49;9.90;;;5.60;;
12334;SDS011;6233;51.560;9.986;2023-05-23T16:09:51;8.67;;;5.53;;
12334;SDS011;6233;51.560;9.986;2023-05-23T16:12:53;10.73;;;6.50;;
12334;SDS011;6233;51.560;9.986;2023-05-23T16:15:55;11.07;;;6.30;;
12334;SDS011;6233;51.560;9.986;2023-05-23T16:18:59;10.10;;;5.30;;
12334;SDS011;6233;51.560;9.986;2023-05-23T16:22:02;9.53;;;5.70;;
12334;SDS011;6233;51.560;9.986;2023-05-23T16:25:04;12.17;;;5.07;;
12334;SDS011;6233;51.560;9.986;2023-05-23T16:28:08;10.17;;;5.73;;
12334;SDS011;6233;51.560;9.986;2023-05-23T16:31:13;9.13;;;5.70;;
12334;SDS011;6233;51.560;9.986;2023-05-23T16:34:17;9.57;;;5.30;;
12334;SDS011;6233;51.560;9.986;2023-05-23T16:37:19;8.97;;;5.43;;
12334;SDS011;6233;51.560;9.986;2023-05-23T16:40:21;8.67;;;5.40;;
12334;SDS011;6233;51.560;9.986;2023-05-23T16:43:23;9.47;;;4.60;;
12334;SDS011;6233;51.560;9.986;2023-05-23T16:46:25;9.13;;;4.83;;
12334;SDS011;6233;51.560;9.986;2023-05-23T16:49:27;10.23;;;5.07;;
12334;SDS011;6233;51.560;9.986;2023-05-23T16:52:30;8.77;;;4.97;;
12334;SDS011;6233;51.560;9.986;2023-05-23T16:55:32;9.13;;;5.07;;
12334;SDS011;6233;51.560;9.986;2023-05-23T16:58:34;10.27;;;5.30;;
12334;SDS011;6233;51.560;9.986;2023-05-23T17:01:38;9.17;;;5.13;;
12334;SDS011;6233;51.560;9.986;2023-05-23T17:04:41;8.57;;;5.23;;
12334;SDS011;6233;51.560;9.986;2023-05-23T17:07:43;11.50;;;5.13;;
12334;SDS011;6233;51.560;9.986;2023-05-23T17:10:45;9.40;;;4.90;;
12334;SDS011;6233;51.560;9.986;2023-05-23T17:13:47;9.97;;;4.63;;
12334;SDS011;6233;51.560;9.986;2023-05-23T17:16:50;9.13;;;5.50;;
12334;SDS011;6233;51.560;9.986;2023-05-23T17:19:52;8.53;;;5.37;;
12334;SDS011;6233;51.560;9.986;2023-05-23T17:22:55;8.83;;;4.40;;
12334;SDS011;6233;51.560;9.986;2023-05-23T17:25:57;8.53;;;5.23;;
12334;SDS011;6233;51.560;9.986;2023-05-23T17:28:59;10.40;;;5.07;;
12334;SDS011;6233;51.560;9.986;2023-05-23T17:32:01;10.23;;;5.03;;
12334;SDS011;6233;51.560;9.986;2023-05-23T17:35:04;8.27;;;5.33;;
12334;SDS011;6233;51.560;9.986;2023-05-23T17:38:06;10.77;;;4.90;;
12334;SDS011;6233;51.560;9.986;2023-05-23T17:41:08;11.63;;;5.73;;
12334;SDS011;6233;51.560;9.986;2023-05-23T17:44:10;11.27;;;5.40;;
12334;SDS011;6233;51.560;9.986;2023-05-23T17:47:12;10.43;;;4.57;;
12334;SDS011;6233;51.560;9.986;2023-05-23T17:50:14;9.10;;;5.00;;
12334;SDS011;6233;51.560;9.986;2023-05-23T17:53:17;13.17;;;5.47;;
12334;SDS011;6233;51.560;9.986;2023-05-23T17:56:19;10.73;;;5.37;;
12334;SDS011;6233;51.560;9.986;2023-05-23T17:59:25;8.80;;;5.73;;
12334;SDS011;6233;51.560;9.986;2023-05-23T18:02:28;7.80;;;4.67;;
12334;SDS011;6233;51.560;9.986;2023-05-23T18:05:31;7.20;;;5.10;;
12334;SDS011;6233;51.560;9.986;2023-05-23T18:08:33;13.03;;;5.17;;
12334;SDS011;6233;51.560;9.986;2023-05-23T18:11:35;13.20;;;6.10;;
12334;SDS011;6233;51.560;9.986;2023-05-23T18:14:38;8.87;;;5.63;;
12334;SDS011;6233;51.560;9.986;2023-05-23T18:17:41;7.90;;;4.80;;
12334;SDS011;6233;51.560;9.986;2023-05-23T18:20:43;8.73;;;5.07;;
12334;SDS011;6233;51.560;9.986;2023-05-23T18:23:45;9.47;;;5.20;;
12334;SDS011;6233;51.560;9.986;2023-05-23T18:26:48;8.50;;;5.20;;
12334;SDS011;6233;51.560;9.986;2023-05-23T18:29:50;11.40;;;5.40;;
12334;SDS011;6233;51.560;9.986;2023-05-23T18:32:52;9.30;;;5.20;;
12334;SDS011;6233;51.560;9.986;2023-05-23T18:35:55;7.23;;;4.33;;
12334;SDS011;6233;51.560;9.986;2023-05-23T18:38:57;7.97;;;4.50;;
12334;SDS011;6233;51.560;9.986;2023-05-23T18:41:59;8.03;;;4.40;;
12334;SDS011;6233;51.560;9.986;2023-05-23T18:45:02;9.20;;;4.87;;
12334;SDS011;6233;51.560;9.986;2023-05-23T18:48:04;10.17;;;4.80;;
12334;SDS011;6233;51.560;9.986;2023-05-23T18:51:06;12.60;;;6.40;;
12334;SDS011;6233;51.560;9.986;2023-05-23T18:54:09;9.63;;;5.33;;
12334;SDS011;6233;51.560;9.986;2023-05-23T18:57:11;11.33;;;5.30;;
12334;SDS011;6233;51.560;9.986;2023-05-23T19:00:13;9.03;;;4.50;;
12334;SDS011;6233;51.560;9.986;2023-05-23T19:03:16;9.33;;;5.03;;
12334;SDS011;6233;51.560;9.986;2023-05-23T19:06:18;10.27;;;5.03;;
12334;SDS011;6233;51.560;9.986;2023-05-23T19:09:20;9.33;;;4.70;;
12334;SDS011;6233;51.560;9.986;2023-05-23T19:12:23;8.07;;;4.50;;